Time;durP1;ratioP1;P1;durP2;ratioP2;P2;SDS_P1;SDS_P2;PMS_P1;PMS_P2;Temp;Humidity;BMP_temperature;BMP_pressure;BME280_temperature;BME280_humidity;BME280_pressure;Samples;Min_cycle;Max_cycle;Signal;HPM_P1;HPM_P2
2022/08/26 07:38:18;;;;;;;27.17;25.52;;;;;;;;;;5135245;27;20534;-75
2022/08/26 07:40:44;;;;;;;27.10;25.48;;;;;;;;;;5134350;28;20330;-64
2022/08/26 07:43:10;;;;;;;27.00;25.30;;;;;;;;;;5135407;28;20019;-67
2022/08/26 14:34:19;;;;;;;5.03;2.88;;;29.80;83.10;;;;;;4998211;28;20462;-71
2022/08/26 14:36:45;;;;;;;7.65;2.20;;;30.40;77.90;;;;;;4925198;28;20053;-53
2022/08/26 14:39:13;;;;;;;5.60;2.35;;;31.00;73.30;;;;;;4881077;28;106994;-57
2022/08/26 14:43:08;;;;;;;2.55;2.03;;;31.40;72.50;;;;;;5125273;27;20384;-62
2022/08/26 14:45:39;;;;;;;5.85;2.88;;;31.30;71.50;;;;;;5075948;28;20051;-63
2022/08/26 14:48:06;;;;;;;2.63;1.75;;;31.10;71.50;;;;;;5076188;28;20385;-60
2022/08/26 14:50:32;;;;;;;1.77;1.65;;;30.80;72.10;;;;;;5015180;28;20037;-60
2022/08/26 14:55:29;;;;;;;3.15;2.30;;;30.40;72.80;;;;;;5035263;28;20031;-61
2022/08/26 14:57:56;;;;;;;3.17;1.75;;;30.20;73.40;;;;;;5051156;28;20039;-61
2022/08/26 15:00:22;;;;;;;3.22;2.05;;;30.10;73.60;;;;;;5035095;28;20058;-61
2022/08/26 15:02:48;;;;;;;3.80;2.20;;;30.00;73.80;;;;;;5067800;28;20039;-61
2022/08/26 15:05:14;;;;;;;3.00;1.98;;;30.00;73.90;;;;;;5034922;28;20040;-60
2022/08/26 15:07:40;;;;;;;3.97;2.10;;;29.90;74.00;;;;;;5034695;28;20094;-60
2022/08/26 15:10:10;;;;;;;2.95;2.30;;;29.90;74.20;;;;;;5050975;28;20072;-61
2022/08/26 15:12:37;;;;;;;3.25;2.15;;;29.80;74.20;;;;;;5018857;28;20024;-60
2022/08/26 15:15:04;;;;;;;4.72;2.00;;;29.80;74.40;;;;;;5034464;28;20024;-61
2022/08/26 15:17:30;;;;;;;3.10;2.40;;;29.70;74.60;;;;;;5050930;28;20108;-61
2022/08/26 15:19:56;;;;;;;6.70;2.50;;;29.70;74.60;;;;;;5066489;28;20107;-61
2022/08/26 15:22:23;;;;;;;2.67;1.77;;;29.70;74.70;;;;;;5033620;28;20131;-60
2022/08/26 15:24:49;;;;;;;2.42;1.83;;;29.70;74.80;;;;;;5051026;28;20027;-61
2022/08/26 15:27:15;;;;;;;3.50;1.88;;;29.70;74.90;;;;;;5067400;28;20382;-60
2022/08/26 15:29:41;;;;;;;3.05;1.90;;;29.70;74.90;;;;;;5067608;28;20461;-60
2022/08/26 15:32:07;;;;;;;3.55;2.22;;;29.70;74.90;;;;;;5050331;28;20021;-60
2022/08/26 15:34:33;;;;;;;3.38;2.20;;;29.70;74.90;;;;;;5034405;28;20469;-61
2022/08/26 15:36:59;;;;;;;2.42;2.08;;;29.70;74.90;;;;;;5050953;28;20495;-61
2022/08/26 15:39:26;;;;;;;3.30;2.33;;;29.70;74.90;;;;;;5050710;28;20098;-60
2022/08/26 15:41:51;;;;;;;3.70;2.00;;;29.70;74.90;;;;;;5033864;28;20075;-60
2022/08/26 15:44:18;;;;;;;4.35;2.38;;;29.70;74.80;;;;;;5050323;28;20574;-61
2022/08/26 15:46:46;;;;;;;2.55;2.03;;;29.70;74.80;;;;;;5033839;28;20363;-60
2022/08/26 15:49:12;;;;;;;3.33;2.10;;;29.70;74.70;;;;;;5067312;28;20651;-60
2022/08/26 15:51:40;;;;;;;3.22;2.38;;;29.70;74.70;;;;;;5050437;28;20056;-61
2022/08/26 15:54:07;;;;;;;3.15;2.17;;;29.70;74.70;;;;;;5039151;28;20029;-60
2022/08/26 15:56:36;;;;;;;3.88;2.20;;;29.60;74.60;;;;;;5021012;28;20109;-61
2022/08/26 15:59:04;;;;;;;2.63;1.88;;;29.70;74.60;;;;;;5036880;28;20025;-61
2022/08/26 16:01:30;;;;;;;3.97;1.90;;;29.60;74.60;;;;;;5053169;28;20044;-60
2022/08/26 16:03:57;;;;;;;3.05;1.88;;;29.60;74.60;;;;;;5020667;28;20378;-59
2022/08/26 16:06:28;;;;;;;3.92;2.22;;;29.60;74.60;;;;;;5037025;28;20021;-59
2022/08/26 16:08:55;;;;;;;4.40;2.03;;;29.60;74.70;;;;;;5052023;28;20025;-59
2022/08/26 16:11:21;;;;;;;5.18;2.38;;;29.60;74.50;;;;;;5036478;28;20036;-59
2022/08/26 16:13:47;;;;;;;2.92;2.45;;;29.60;74.50;;;;;;5036663;28;20048;-59
2022/08/26 16:16:14;;;;;;;4.15;2.10;;;29.60;74.40;;;;;;5037029;28;20064;-59
2022/08/26 16:18:41;;;;;;;2.67;2.35;;;29.60;74.20;;;;;;5037075;28;20053;-59
2022/08/26 16:21:08;;;;;;;3.40;2.20;;;29.60;74.10;;;;;;5053495;28;20037;-59
2022/08/26 16:23:34;;;;;;;5.18;2.50;;;29.60;74.00;;;;;;5020584;28;20021;-59
2022/08/26 16:26:09;;;;;;;4.35;2.60;;;29.60;73.90;;;;;;5020379;28;20029;-59
2022/08/26 16:28:35;;;;;;;3.65;2.10;;;29.60;73.80;;;;;;5020588;28;20055;-59
2022/08/26 16:31:01;;;;;;;3.63;2.40;;;29.60;73.70;;;;;;5036943;28;20024;-59
2022/08/26 16:33:28;;;;;;;2.85;2.22;;;29.60;73.60;;;;;;5020512;28;20040;-59
2022/08/26 16:35:54;;;;;;;7.00;2.75;;;29.60;73.50;;;;;;5020229;28;20033;-59
2022/08/26 16:38:20;;;;;;;4.10;2.80;;;29.60;73.50;;;;;;5036575;28;20155;-59
2022/08/26 16:40:47;;;;;;;3.53;2.58;;;29.50;73.50;;;;;;5019835;28;20075;-59
2022/08/26 16:43:12;;;;;;;3.28;2.15;;;29.50;73.40;;;;;;5036803;28;20025;-59
2022/08/26 16:45:39;;;;;;;6.45;2.90;;;29.50;73.50;;;;;;5027997;28;20031;-60
2022/08/26 16:48:06;;;;;;;4.00;2.60;;;29.50;73.40;;;;;;5035457;28;20378;-59
2022/08/26 16:50:32;;;;;;;4.07;2.72;;;29.50;73.30;;;;;;5052575;28;20021;-59
2022/08/26 16:53:01;;;;;;;2.78;2.30;;;29.50;73.30;;;;;;5020016;28;20051;-59
2022/08/26 16:55:27;;;;;;;3.35;2.70;;;29.50;73.10;;;;;;5052241;28;20124;-60
2022/08/26 16:57:53;;;;;;;5.82;2.90;;;29.50;73.20;;;;;;5035615;28;20151;-62
2022/08/26 17:00:26;;;;;;;5.53;2.50;;;29.50;73.30;;;;;;5019842;28;20025;-61
2022/08/26 17:02:53;;;;;;;6.20;2.78;;;29.50;73.40;;;;;;5020684;28;20036;-60
2022/08/26 17:05:19;;;;;;;2.92;2.50;;;29.50;73.60;;;;;;5051763;28;20075;-62
2022/08/26 17:07:45;;;;;;;3.88;2.33;;;29.50;73.60;;;;;;5035814;28;20048;-61
2022/08/26 17:10:11;;;;;;;3.97;2.50;;;29.50;73.70;;;;;;5035083;28;20491;-61
2022/08/26 17:12:38;;;;;;;5.63;2.72;;;29.50;73.80;;;;;;5035923;28;20035;-61
2022/08/26 17:15:06;;;;;;;7.50;2.97;;;29.50;74.00;;;;;;5052713;28;20075;-63
2022/08/26 17:17:33;;;;;;;6.22;2.72;;;29.50;74.10;;;;;;5051645;28;20083;-64
2022/08/26 17:20:03;;;;;;;6.95;2.80;;;29.50;74.30;;;;;;5039288;28;20052;-63
2022/08/26 17:22:30;;;;;;;4.43;3.28;;;29.50;74.30;;;;;;5035176;28;20040;-63
2022/08/26 17:24:56;;;;;;;7.20;2.53;;;29.50;74.40;;;;;;5035006;28;20025;-64
2022/08/26 17:27:22;;;;;;;4.55;2.50;;;29.50;74.40;;;;;;5035021;28;20377;-63
2022/08/26 17:29:48;;;;;;;5.38;3.03;;;29.50;74.40;;;;;;5051326;28;20029;-63
2022/08/26 17:32:14;;;;;;;5.03;2.30;;;29.50;74.50;;;;;;5018248;28;20412;-63
2022/08/26 17:34:40;;;;;;;7.03;2.95;;;29.50;74.50;;;;;;5034402;28;20024;-64
2022/08/26 17:37:07;;;;;;;5.13;2.50;;;29.50;74.40;;;;;;5034433;28;20025;-64
2022/08/26 17:39:36;;;;;;;6.78;2.75;;;29.50;74.50;;;;;;5034847;28;20078;-63
2022/08/26 17:42:02;;;;;;;3.40;2.22;;;29.50;74.50;;;;;;5034370;28;20465;-63
2022/08/26 17:44:28;;;;;;;5.78;2.92;;;29.50;74.50;;;;;;5034387;28;20024;-63
2022/08/26 17:46:54;;;;;;;7.47;2.50;;;29.50;74.50;;;;;;5034685;28;20171;-63
2022/08/26 17:49:20;;;;;;;4.45;3.13;;;29.50;74.50;;;;;;5034135;28;20611;-63
2022/08/26 17:51:46;;;;;;;3.95;2.63;;;29.50;74.50;;;;;;5017793;28;20536;-64
2022/08/26 17:54:12;;;;;;;4.43;2.50;;;29.50;74.50;;;;;;5034133;28;20029;-63
2022/08/26 17:56:38;;;;;;;3.42;2.22;;;29.50;74.40;;;;;;5017933;28;20032;-67
2022/08/26 17:59:04;;;;;;;8.07;2.80;;;29.40;74.50;;;;;;5017536;28;20028;-67
2022/08/26 18:01:31;;;;;;;2.95;2.10;;;29.50;74.20;;;;;;5033970;28;20037;-67
2022/08/26 18:03:56;;;;;;;3.72;2.38;;;29.40;73.70;;;;;;5033157;28;20627;-66
2022/08/26 18:06:23;;;;;;;4.95;2.25;;;29.40;73.20;;;;;;5033834;28;20028;-69
2022/08/26 18:08:49;;;;;;;4.97;2.70;;;29.40;72.60;;;;;;5034153;28;20032;-67
2022/08/26 18:11:18;;;;;;;4.13;2.42;;;29.40;72.10;;;;;;5050512;28;20029;-67
2022/08/26 18:13:45;;;;;;;4.25;2.65;;;29.40;71.60;;;;;;5050283;28;20131;-68
2022/08/26 18:16:11;;;;;;;3.67;2.45;;;29.40;71.20;;;;;;5050079;28;20121;-69
2022/08/26 18:18:38;;;;;;;4.10;2.60;;;29.30;71.60;;;;;;5033755;28;20032;-67
2022/08/26 18:21:12;;;;;;;5.35;2.75;;;29.40;71.20;;;;;;5050282;28;20585;-67
2022/08/26 18:23:38;;;;;;;4.37;2.43;;;29.30;70.90;;;;;;5034298;28;20090;-67
2022/08/26 18:26:04;;;;;;;4.45;2.95;;;29.40;70.70;;;;;;5033510;28;20482;-68
2022/08/26 18:28:30;;;;;;;10.00;2.92;;;29.30;70.40;;;;;;5017484;28;20386;-67
2022/08/26 18:30:56;;;;;;;3.17;2.53;;;29.30;70.40;;;;;;5017121;28;20025;-71
2022/08/26 18:33:22;;;;;;;4.20;2.58;;;29.30;70.60;;;;;;5014673;28;20909;-72
2022/08/26 18:35:48;;;;;;;3.63;2.90;;;29.30;70.60;;;;;;5031029;28;20124;-70
2022/08/26 18:38:14;;;;;;;6.13;2.60;;;29.30;70.40;;;;;;5013810;28;20091;-71
2022/08/26 18:40:43;;;;;;;6.30;2.30;;;29.30;70.30;;;;;;5013507;28;20022;-71
2022/08/26 18:43:09;;;;;;;4.32;2.47;;;29.30;70.10;;;;;;5013666;28;20382;-70
2022/08/26 18:45:36;;;;;;;5.00;2.58;;;29.30;70.20;;;;;;5029646;28;20025;-69
2022/08/26 18:48:03;;;;;;;4.72;2.63;;;29.30;70.00;;;;;;5029500;28;20661;-70
2022/08/26 18:50:29;;;;;;;8.63;2.70;;;29.30;70.00;;;;;;5013906;28;20025;-68
2022/08/26 18:52:55;;;;;;;4.65;2.70;;;29.30;70.00;;;;;;5013715;28;20052;-71
2022/08/26 18:55:21;;;;;;;5.97;2.83;;;29.20;70.30;;;;;;5013497;28;20017;-68
2022/08/26 18:57:47;;;;;;;4.22;2.97;;;29.20;70.40;;;;;;5029737;28;20018;-69
2022/08/26 19:00:13;;;;;;;5.07;2.88;;;29.20;70.70;;;;;;5029543;28;20030;-69
2022/08/26 19:02:39;;;;;;;5.03;2.58;;;29.20;70.70;;;;;;5013497;28;20453;-69
2022/08/26 19:05:06;;;;;;;5.93;2.38;;;29.20;70.80;;;;;;5013534;28;20033;-69
2022/08/26 19:07:32;;;;;;;6.38;3.15;;;29.20;71.00;;;;;;5013349;28;20057;-70
2022/08/26 19:09:58;;;;;;;5.45;2.92;;;29.10;71.20;;;;;;5013422;28;20059;-67
2022/08/26 19:12:25;;;;;;;3.15;2.60;;;29.10;71.40;;;;;;5013350;28;20480;-69
2022/08/26 19:14:51;;;;;;;3.35;2.10;;;29.10;71.40;;;;;;5013475;28;20064;-69
2022/08/26 19:17:17;;;;;;;4.20;2.78;;;29.10;71.50;;;;;;5013308;28;20437;-69
2022/08/26 19:19:43;;;;;;;4.78;2.60;;;29.10;71.50;;;;;;5012993;28;20914;-69
2022/08/26 19:22:09;;;;;;;4.30;2.80;;;29.10;71.60;;;;;;5013124;28;20091;-69
2022/08/26 19:24:35;;;;;;;6.40;2.53;;;29.00;71.70;;;;;;5013329;28;20028;-69
2022/08/26 19:27:02;;;;;;;7.00;2.85;;;29.00;71.80;;;;;;5013371;28;20420;-69
2022/08/26 19:29:32;;;;;;;3.72;2.55;;;29.00;71.70;;;;;;5016040;28;20021;-69
2022/08/26 19:31:58;;;;;;;4.07;2.58;;;29.00;71.70;;;;;;5017086;28;20025;-69
2022/08/26 19:34:24;;;;;;;4.18;2.70;;;29.00;71.60;;;;;;5016870;28;20505;-68
2022/08/26 19:36:53;;;;;;;3.15;2.28;;;28.90;71.60;;;;;;5017119;28;20057;-68
2022/08/26 19:39:20;;;;;;;4.45;2.80;;;28.90;71.60;;;;;;5033019;28;20026;-68
2022/08/26 19:41:46;;;;;;;5.05;2.63;;;28.90;71.60;;;;;;5015925;28;20491;-68
2022/08/26 19:45:06;;;;;;;4.30;2.70;;;28.90;71.70;;;;;;5016845;28;20032;-68
2022/08/26 19:47:02;;;;;;;6.78;3.00;;;28.90;71.80;;;;;;5019795;28;20160;-68
2022/08/26 19:49:28;;;;;;;4.05;2.58;;;28.80;72.00;;;;;;5032826;28;20052;-68
2022/08/26 19:51:54;;;;;;;4.80;2.92;;;28.80;72.00;;;;;;5016149;28;20029;-68
2022/08/26 19:54:21;;;;;;;5.18;3.17;;;28.80;72.00;;;;;;5016452;28;20028;-68
2022/08/26 19:56:47;;;;;;;4.57;3.03;;;28.70;71.90;;;;;;5016366;28;20382;-68
2022/08/26 19:59:14;;;;;;;6.72;3.40;;;28.70;71.90;;;;;;5016497;28;20021;-68
2022/08/26 20:01:40;;;;;;;5.22;2.70;;;28.70;72.00;;;;;;5032297;28;20041;-68
2022/08/26 20:04:06;;;;;;;4.45;2.67;;;28.60;72.10;;;;;;5032910;28;20383;-68
2022/08/26 20:06:32;;;;;;;7.07;2.80;;;28.60;72.10;;;;;;5016726;28;20167;-67
2022/08/26 20:08:58;;;;;;;5.15;2.45;;;28.60;72.10;;;;;;5016856;28;20605;-67
2022/08/26 20:11:24;;;;;;;6.63;2.70;;;28.60;71.90;;;;;;5016268;28;20036;-67
2022/08/26 20:13:50;;;;;;;9.55;3.45;;;28.60;71.90;;;;;;5033228;28;20117;-67
2022/08/26 20:16:16;;;;;;;8.88;3.15;;;28.60;71.80;;;;;;5016737;28;20048;-63
2022/08/26 20:23:43;;;;;;;4.60;2.70;;;28.60;71.60;;;;;;5032715;28;20025;-65
2022/08/26 20:26:09;;;;;;;3.70;2.90;;;28.60;71.50;;;;;;5033292;28;20029;-65
2022/08/26 20:28:35;;;;;;;5.78;2.83;;;28.60;71.50;;;;;;5033161;28;20502;-68
2022/08/26 20:31:02;;;;;;;4.93;2.95;;;28.60;71.60;;;;;;5015657;28;20021;-65
2022/08/26 20:33:28;;;;;;;3.65;2.63;;;28.60;71.60;;;;;;5015500;28;20585;-67
2022/08/26 20:35:54;;;;;;;5.63;2.80;;;28.60;71.70;;;;;;5015663;28;20021;-66
2022/08/26 20:38:20;;;;;;;3.22;2.08;;;28.60;71.60;;;;;;5032903;28;20167;-65
2022/08/26 20:40:46;;;;;;;4.05;2.58;;;28.60;71.50;;;;;;5015119;28;20124;-65
2022/08/26 20:43:12;;;;;;;3.55;2.42;;;28.60;71.50;;;;;;5014765;28;20360;-66
2022/08/26 20:45:38;;;;;;;4.18;3.00;;;28.60;71.40;;;;;;5015197;28;20034;-65
2022/08/26 20:48:04;;;;;;;3.45;2.50;;;28.60;71.40;;;;;;5015284;28;20060;-65
2022/08/26 20:50:31;;;;;;;2.80;2.35;;;28.70;71.30;;;;;;5014959;28;20021;-66
2022/08/26 20:52:58;;;;;;;4.38;2.42;;;28.60;71.10;;;;;;5015483;28;20061;-66
2022/08/26 20:55:24;;;;;;;3.72;2.65;;;28.70;71.10;;;;;;5015258;28;20022;-65
2022/08/26 20:57:51;;;;;;;4.20;2.60;;;28.70;71.10;;;;;;5015010;28;20018;-66
2022/08/26 21:00:21;;;;;;;5.68;2.40;;;28.70;71.20;;;;;;5015247;28;20378;-65
2022/08/26 21:02:48;;;;;;;3.00;2.10;;;28.70;71.20;;;;;;5031767;28;20038;-65
2022/08/26 21:05:14;;;;;;;3.33;2.03;;;28.70;71.30;;;;;;5015116;28;20061;-65
2022/08/26 21:07:40;;;;;;;3.90;2.47;;;28.70;71.30;;;;;;5015011;28;20079;-65
2022/08/26 21:10:06;;;;;;;2.67;2.10;;;28.70;71.40;;;;;;5015022;28;20017;-65
2022/08/26 21:12:32;;;;;;;2.90;1.90;;;28.70;71.40;;;;;;5014737;28;20474;-66
2022/08/26 21:14:58;;;;;;;5.63;2.60;;;28.60;71.50;;;;;;5015162;28;20033;-65
2022/08/26 21:17:24;;;;;;;4.18;2.50;;;28.60;71.50;;;;;;5014892;28;20017;-66
2022/08/26 21:19:51;;;;;;;3.47;2.10;;;28.60;71.50;;;;;;5014276;28;20034;-65
2022/08/26 21:22:17;;;;;;;4.20;2.42;;;28.60;71.40;;;;;;5015008;28;20506;-65
2022/08/26 21:24:43;;;;;;;4.28;2.38;;;28.60;71.40;;;;;;5015066;28;20039;-65
2022/08/26 21:27:09;;;;;;;3.03;2.35;;;28.60;71.50;;;;;;5014846;28;20022;-65
2022/08/26 21:29:35;;;;;;;4.00;2.45;;;28.50;71.60;;;;;;5014597;28;20452;-65
2022/08/26 21:32:02;;;;;;;6.85;2.72;;;28.50;71.60;;;;;;5014409;28;20064;-65
2022/08/26 21:34:27;;;;;;;3.58;2.25;;;28.50;71.70;;;;;;5014426;28;20525;-67
2022/08/26 21:36:53;;;;;;;4.63;2.28;;;28.50;71.70;;;;;;5014615;28;20029;-65
2022/08/26 21:39:19;;;;;;;3.65;2.38;;;28.40;72.00;;;;;;5014425;28;20025;-65
2022/08/26 21:41:46;;;;;;;4.78;2.97;;;28.40;72.20;;;;;;5014138;28;20109;-66
2022/08/26 21:44:13;;;;;;;4.57;2.47;;;28.40;72.40;;;;;;5014306;28;20463;-65
2022/08/26 21:46:40;;;;;;;5.80;2.35;;;28.30;72.60;;;;;;5014406;28;20463;-65
2022/08/26 21:49:09;;;;;;;3.17;2.50;;;28.30;72.70;;;;;;5030443;28;20033;-65
2022/08/26 21:51:37;;;;;;;6.55;2.30;;;28.20;72.80;;;;;;5013957;28;20072;-66
2022/08/26 21:54:05;;;;;;;4.95;2.45;;;28.20;72.90;;;;;;5014469;28;20455;-65
2022/08/26 21:56:34;;;;;;;3.85;2.50;;;28.20;73.00;;;;;;5030444;28;20029;-66
2022/08/26 21:59:01;;;;;;;4.85;3.42;;;28.20;73.10;;;;;;5014007;28;20037;-65
2022/08/26 22:01:31;;;;;;;5.57;2.45;;;28.10;73.10;;;;;;5013936;28;20471;-66
2022/08/26 22:03:57;;;;;;;3.47;2.53;;;28.20;73.20;;;;;;5014308;28;20116;-65
2022/08/26 22:06:25;;;;;;;3.13;2.05;;;28.10;73.40;;;;;;5014245;28;20021;-65
2022/08/26 22:08:53;;;;;;;3.13;2.40;;;28.10;73.40;;;;;;5013987;28;20418;-65
2022/08/26 22:11:19;;;;;;;3.75;2.83;;;28.10;73.80;;;;;;5014115;28;20057;-66
2022/08/26 22:13:46;;;;;;;6.25;2.78;;;28.10;74.10;;;;;;5029914;28;20022;-65
2022/08/26 22:16:12;;;;;;;5.55;2.80;;;28.00;74.60;;;;;;5030006;28;20049;-65
2022/08/26 22:18:44;;;;;;;5.75;2.92;;;28.00;74.50;;;;;;5013779;28;20038;-65
2022/08/26 22:21:16;;;;;;;4.82;2.80;;;27.90;74.70;;;;;;5029931;28;20022;-66
2022/08/26 22:23:43;;;;;;;10.90;3.35;;;27.90;74.80;;;;;;5029907;28;20064;-66
2022/08/26 22:26:10;;;;;;;3.33;2.53;;;27.90;74.60;;;;;;5030174;28;20037;-67
2022/08/26 22:28:38;;;;;;;5.22;2.60;;;27.90;74.50;;;;;;5013763;28;20021;-67
2022/08/26 22:31:10;;;;;;;4.13;2.13;;;27.90;74.50;;;;;;5030154;28;20021;-67
2022/08/26 22:33:39;;;;;;;3.88;2.80;;;27.90;74.30;;;;;;5030183;28;20026;-66
2022/08/26 22:36:05;;;;;;;4.25;2.80;;;27.90;74.30;;;;;;5013524;28;20121;-68
2022/08/26 22:38:32;;;;;;;5.60;2.67;;;27.90;74.30;;;;;;5013566;28;20036;-67
2022/08/26 22:40:59;;;;;;;4.07;3.10;;;27.90;74.20;;;;;;5013195;28;20035;-66
2022/08/26 22:43:27;;;;;;;3.88;2.80;;;27.90;74.00;;;;;;5013550;28;20021;-58
2022/08/26 22:45:54;;;;;;;4.47;2.83;;;28.00;74.00;;;;;;5013273;28;20075;-59
2022/08/26 23:04:27;;;;;;;3.50;2.00;;;27.90;74.60;;;;;;5084465;28;20448;-57
2022/08/26 23:06:53;;;;;;;4.60;2.22;;;27.90;75.00;;;;;;5034611;28;20386;-57
2022/08/26 23:09:19;;;;;;;2.90;2.08;;;28.00;74.90;;;;;;5034487;28;20029;-58
2022/08/26 23:11:47;;;;;;;5.18;2.17;;;28.10;74.80;;;;;;5034229;28;20029;-57
2022/08/26 23:14:13;;;;;;;4.25;2.42;;;28.20;74.60;;;;;;5034394;28;20029;-58
2022/08/26 23:16:40;;;;;;;4.25;2.10;;;28.30;74.40;;;;;;5050479;28;20021;-58
2022/08/26 23:19:09;;;;;;;3.28;2.10;;;28.40;74.30;;;;;;5058434;28;20016;-58
2022/08/26 23:21:35;;;;;;;2.47;2.08;;;28.40;74.10;;;;;;5067426;28;20454;-58
2022/08/26 23:24:01;;;;;;;5.05;2.00;;;28.50;74.10;;;;;;5050367;28;20072;-58
2022/08/26 23:26:27;;;;;;;4.05;2.30;;;28.60;74.00;;;;;;5050952;28;20025;-57
2022/08/26 23:28:54;;;;;;;3.00;2.05;;;28.60;73.90;;;;;;5050509;28;20028;-58
2022/08/26 23:31:20;;;;;;;5.28;2.38;;;28.70;73.90;;;;;;5066973;28;20509;-57
2022/08/26 23:36:16;;;;;;;3.42;2.10;;;28.70;73.80;;;;;;5050987;28;20043;-58
2022/08/26 23:38:42;;;;;;;3.50;2.35;;;28.70;73.80;;;;;;5050455;28;20104;-57
2022/08/26 23:41:08;;;;;;;3.22;1.88;;;28.80;73.80;;;;;;5050264;28;20143;-58
2022/08/26 23:43:34;;;;;;;3.00;1.98;;;28.80;73.80;;;;;;5050476;28;20099;-58
2022/08/26 23:46:00;;;;;;;4.07;2.00;;;28.80;73.70;;;;;;5049924;28;20057;-57
2022/08/26 23:48:26;;;;;;;2.65;1.90;;;28.80;73.70;;;;;;5050401;28;20020;-57
2022/08/26 23:53:21;;;;;;;2.45;2.00;;;28.80;73.60;;;;;;5050740;28;20373;-58
2022/08/26 23:55:50;;;;;;;2.55;1.77;;;28.80;73.60;;;;;;5049951;28;20108;-58
2022/08/26 23:58:19;;;;;;;3.40;1.70;;;28.90;73.60;;;;;;5049798;28;20033;-57
